createdAt,value
2022-11-03T00:01:37.808Z,15.40
2022-11-03T00:04:09.845Z,15.40
2022-11-03T00:06:37.993Z,15.40
2022-11-03T00:09:08.718Z,15.30
2022-11-03T00:11:38.195Z,15.30
2022-11-03T00:14:06.348Z,15.40
2022-11-03T00:16:33.900Z,15.40
2022-11-03T00:19:01.595Z,15.40
2022-11-03T00:21:29.905Z,15.40
2022-11-03T00:23:57.226Z,15.40
2022-11-03T00:26:29.366Z,15.40
2022-11-03T00:29:00.591Z,15.40
2022-11-03T00:31:30.344Z,15.50
2022-11-03T00:33:58.806Z,15.50
2022-11-03T00:36:37.179Z,15.40
2022-11-03T00:39:06.016Z,15.50
2022-11-03T00:41:33.994Z,15.50
2022-11-03T00:44:01.512Z,15.40
2022-11-03T00:46:30.475Z,15.40
2022-11-03T00:48:57.957Z,15.40
2022-11-03T00:51:27.782Z,15.40
2022-11-03T00:54:00.262Z,15.40
2022-11-03T00:56:30.346Z,15.40
2022-11-03T00:59:05.262Z,15.50
2022-11-03T01:01:43.963Z,15.40
2022-11-03T01:04:32.006Z,15.40
2022-11-03T01:07:00.579Z,15.40
2022-11-03T01:09:35.435Z,15.40
2022-11-03T01:12:11.980Z,15.30
2022-11-03T01:14:51.118Z,15.30
2022-11-03T01:17:24.841Z,15.40
2022-11-03T01:19:54.770Z,15.40
2022-11-03T01:22:23.431Z,15.40
2022-11-03T01:24:53.985Z,15.30
2022-11-03T01:27:22.754Z,15.30
2022-11-03T01:29:50.220Z,15.20
2022-11-03T01:32:17.579Z,15.20
2022-11-03T01:34:44.923Z,15.20
2022-11-03T01:37:12.164Z,15.20
2022-11-03T01:39:39.488Z,15.20
2022-11-03T01:42:07.363Z,15.20
2022-11-03T01:44:43.579Z,15.20
2022-11-03T01:47:30.257Z,15.20
2022-11-03T01:50:09.864Z,15.20
2022-11-03T01:52:48.765Z,15.10
2022-11-03T01:55:24.888Z,15.10
2022-11-03T01:58:04.126Z,15.10
2022-11-03T02:00:31.744Z,15.10
2022-11-03T02:03:00.097Z,15.10
2022-11-03T02:05:29.289Z,15.10
2022-11-03T02:08:02.248Z,15.10
2022-11-03T02:10:29.712Z,15.10
2022-11-03T02:12:57.446Z,15.20
2022-11-03T02:15:25.945Z,15.20
2022-11-03T02:17:54.398Z,15.20
2022-11-03T02:20:25.913Z,15.20
2022-11-03T02:23:22.601Z,15.20
2022-11-03T02:25:57.848Z,15.20
2022-11-03T02:28:28.066Z,15.20
2022-11-03T02:31:14.348Z,15.20
2022-11-03T02:33:51.293Z,15.20
2022-11-03T02:36:42.834Z,15.20
2022-11-03T02:39:17.092Z,15.10
2022-11-03T02:41:46.001Z,15.10
2022-11-03T02:44:20.126Z,15.10
2022-11-03T02:46:50.652Z,15.00
2022-11-03T02:49:17.994Z,15.00
2022-11-03T02:51:45.258Z,15.00
2022-11-03T02:54:23.477Z,14.90
2022-11-03T02:56:56.911Z,14.90
2022-11-03T02:59:28.984Z,14.80
2022-11-03T03:02:11.037Z,14.80
2022-11-03T03:04:46.724Z,14.80
2022-11-03T03:07:19.353Z,14.80
2022-11-03T03:10:17.350Z,14.70
2022-11-03T03:12:51.101Z,14.70
2022-11-03T03:15:22.214Z,14.60
2022-11-03T03:17:56.236Z,14.60
2022-11-03T03:20:37.872Z,14.60
2022-11-03T03:23:18.184Z,14.60
2022-11-03T03:25:50.670Z,14.60
2022-11-03T03:28:26.239Z,14.60
2022-11-03T03:30:56.445Z,14.60
2022-11-03T03:33:26.393Z,14.60
2022-11-03T03:35:56.363Z,14.50
2022-11-03T03:38:27.952Z,14.50
2022-11-03T03:40:59.255Z,14.50
2022-11-03T03:43:29.048Z,14.50
2022-11-03T03:46:01.404Z,14.50
2022-11-03T03:48:28.850Z,14.40
2022-11-03T03:50:57.295Z,14.40
2022-11-03T03:53:29.368Z,14.40
2022-11-03T03:55:59.085Z,14.40
2022-11-03T03:58:26.302Z,14.40
2022-11-03T04:00:53.614Z,14.40
2022-11-03T04:03:23.389Z,14.40
2022-11-03T04:05:51.594Z,14.40
2022-11-03T04:08:19.023Z,14.40
2022-11-03T04:11:06.597Z,14.30
2022-11-03T04:13:53.152Z,14.30
2022-11-03T04:16:39.097Z,14.40
2022-11-03T04:19:24.973Z,14.50
2022-11-03T04:22:11.119Z,14.30
2022-11-03T04:24:38.396Z,14.30
2022-11-03T04:27:28.756Z,14.20
2022-11-03T04:30:15.417Z,14.10
2022-11-03T04:32:44.381Z,14.10
2022-11-03T04:35:26.071Z,14.00
2022-11-03T04:38:00.905Z,14.00
2022-11-03T04:40:28.960Z,13.90
2022-11-03T04:42:57.477Z,13.90
2022-11-03T04:45:30.017Z,14.00
2022-11-03T04:47:59.643Z,14.00
2022-11-03T04:50:26.904Z,14.00
2022-11-03T04:53:00.758Z,14.00
2022-11-03T04:55:28.108Z,14.00
2022-11-03T04:58:00.156Z,13.90
2022-11-03T05:00:27.550Z,13.90
2022-11-03T05:02:56.353Z,13.90
2022-11-03T05:05:26.870Z,13.90
2022-11-03T05:07:56.593Z,13.90
2022-11-03T05:10:29.417Z,13.90
2022-11-03T05:12:57.091Z,13.90
2022-11-03T05:15:32.433Z,13.90
2022-11-03T05:18:01.510Z,13.90
2022-11-03T05:20:55.591Z,14.00
2022-11-03T05:23:23.250Z,14.00
2022-11-03T05:25:55.193Z,14.00
2022-11-03T05:28:38.345Z,14.00
2022-11-03T05:31:20.488Z,14.00
2022-11-03T05:33:49.736Z,14.00
2022-11-03T05:36:23.658Z,14.00
2022-11-03T05:38:54.297Z,14.00
2022-11-03T05:41:24.908Z,13.90
2022-11-03T05:44:12.331Z,14.00
2022-11-03T05:46:39.662Z,14.00
2022-11-03T05:49:07.533Z,14.00
2022-11-03T05:51:39.474Z,14.00
2022-11-03T05:54:36.990Z,14.00
2022-11-03T05:57:11.489Z,14.00
2022-11-03T05:59:38.796Z,14.00
2022-11-03T06:02:32.618Z,14.00
2022-11-03T06:05:22.777Z,14.10
2022-11-03T06:07:52.593Z,14.00
2022-11-03T06:10:21.502Z,14.00
2022-11-03T06:12:48.954Z,14.00
2022-11-03T06:15:34.568Z,14.00
2022-11-03T06:18:40.518Z,14.00
2022-11-03T06:21:14.023Z,14.10
2022-11-03T06:23:41.972Z,14.20
2022-11-03T06:26:25.316Z,14.20
2022-11-03T06:28:53.366Z,14.10
2022-11-03T06:31:30.632Z,14.10
2022-11-03T06:33:58.565Z,14.20
2022-11-03T06:36:31.108Z,14.30
2022-11-03T06:39:04.007Z,14.40
2022-11-03T06:41:35.935Z,14.40
2022-11-03T06:44:24.518Z,14.40
2022-11-03T06:47:00.092Z,14.40
2022-11-03T06:49:35.738Z,14.40
2022-11-03T06:52:16.810Z,14.40
2022-11-03T06:54:48.317Z,14.30
2022-11-03T06:57:18.762Z,14.30
2022-11-03T06:59:46.512Z,14.40
2022-11-03T07:02:39.994Z,14.30
2022-11-03T07:05:22.543Z,14.40
2022-11-03T07:07:58.157Z,14.40
2022-11-03T07:10:29.514Z,14.40
2022-11-03T07:13:04.325Z,14.50
2022-11-03T07:15:38.230Z,14.50
2022-11-03T07:18:16.869Z,14.60
2022-11-03T07:20:44.181Z,14.60
2022-11-03T07:23:16.106Z,14.70
2022-11-03T07:25:45.550Z,14.70
2022-11-03T07:28:24.495Z,14.70
2022-11-03T07:30:51.970Z,14.80
2022-11-03T07:33:26.609Z,14.80
2022-11-03T07:36:23.227Z,14.80
2022-11-03T07:38:46.218Z,14.90
2022-11-03T07:41:20.043Z,14.90
2022-11-03T07:43:56.704Z,14.80
2022-11-03T07:46:25.732Z,14.80
2022-11-03T07:49:02.630Z,14.80
2022-11-03T07:51:36.994Z,14.80
2022-11-03T07:54:15.144Z,14.90
2022-11-03T07:56:50.436Z,15.00
2022-11-03T07:59:25.560Z,15.10
2022-11-03T08:01:57.790Z,15.20
2022-11-03T08:04:27.996Z,15.30
2022-11-03T08:06:55.433Z,15.40
2022-11-03T08:09:23.497Z,15.40
2022-11-03T08:11:51.221Z,15.30
2022-11-03T08:14:18.637Z,15.40
2022-11-03T08:16:45.946Z,15.50
2022-11-03T08:19:13.245Z,15.60
2022-11-03T08:21:40.490Z,15.60
2022-11-03T08:24:07.772Z,15.70
2022-11-03T08:26:35.045Z,15.70
2022-11-03T08:29:02.315Z,15.70
2022-11-03T08:31:29.599Z,15.70
2022-11-03T08:33:57.050Z,15.70
2022-11-03T08:36:24.341Z,15.70
2022-11-03T08:38:51.560Z,15.60
2022-11-03T08:41:19.357Z,15.50
2022-11-03T08:43:46.575Z,15.50
2022-11-03T08:46:17.771Z,15.50
2022-11-03T08:48:46.270Z,15.50
2022-11-03T08:51:14.811Z,15.50
2022-11-03T08:53:42.757Z,15.50
2022-11-03T08:56:13.070Z,15.50
2022-11-03T08:58:43.560Z,15.50
2022-11-03T09:01:10.981Z,15.60
2022-11-03T09:03:38.741Z,15.70
2022-11-03T09:06:06.852Z,15.80
2022-11-03T09:11:22.001Z,16.20
2022-11-03T09:13:49.225Z,16.80
2022-11-03T09:16:18.753Z,17.20
2022-11-03T09:18:46.040Z,17.70
2022-11-03T09:21:14.772Z,18.00
2022-11-03T09:23:42.223Z,18.40
2022-11-03T09:26:09.923Z,18.60
2022-11-03T09:28:37.132Z,18.80
2022-11-03T09:31:04.413Z,18.90
2022-11-03T09:33:31.737Z,18.90
2022-11-03T09:35:59.073Z,18.80
2022-11-03T09:38:26.339Z,18.70
2022-11-03T09:40:54.622Z,18.60
2022-11-03T09:43:22.208Z,18.60
2022-11-03T09:45:49.782Z,18.70
2022-11-03T09:48:17.095Z,18.80
2022-11-03T09:50:52.607Z,18.80
2022-11-03T09:53:21.139Z,18.70
2022-11-03T09:55:48.435Z,18.70
2022-11-03T09:58:17.995Z,18.60
2022-11-03T10:00:46.022Z,18.50
2022-11-03T10:03:15.618Z,18.60
2022-11-03T10:05:45.362Z,18.80
2022-11-03T10:08:22.360Z,18.90
2022-11-03T10:10:51.382Z,19.00
2022-11-03T10:13:23.789Z,19.00
2022-11-03T10:15:51.242Z,19.00
2022-11-03T10:18:19.088Z,18.90
2022-11-03T10:20:46.468Z,18.70
2022-11-03T10:23:13.706Z,18.50
2022-11-03T10:25:43.381Z,18.40
2022-11-03T10:28:18.323Z,18.30
2022-11-03T10:31:17.298Z,18.20
2022-11-03T10:33:54.767Z,18.30
2022-11-03T10:36:25.161Z,18.30
2022-11-03T10:38:52.869Z,18.20
2022-11-03T10:41:22.695Z,18.20
2022-11-03T10:44:08.104Z,18.30
2022-11-03T10:46:49.603Z,18.40
2022-11-03T10:49:19.643Z,18.40
2022-11-03T10:51:49.810Z,18.50
2022-11-03T10:54:19.163Z,18.60
2022-11-03T10:56:47.451Z,18.70
2022-11-03T10:59:31.802Z,18.70
2022-11-03T11:02:01.268Z,18.70
2022-11-03T11:04:28.896Z,18.70
2022-11-03T11:06:56.235Z,18.60
2022-11-03T11:09:25.758Z,18.70
2022-11-03T11:12:22.172Z,18.80
2022-11-03T11:14:54.906Z,18.80
2022-11-03T11:17:37.431Z,18.80
2022-11-03T11:20:21.457Z,18.80
2022-11-03T11:22:50.372Z,18.80
2022-11-03T11:25:18.645Z,18.80
2022-11-03T11:27:47.024Z,18.90
2022-11-03T11:30:20.722Z,19.00
2022-11-03T11:32:56.930Z,19.10
2022-11-03T11:35:25.023Z,19.10
2022-11-03T11:37:54.040Z,19.20
2022-11-03T11:40:24.277Z,19.30
2022-11-03T11:43:07.271Z,19.40
2022-11-03T11:46:12.877Z,19.50
2022-11-03T11:48:40.425Z,19.50
2022-11-03T11:51:10.681Z,19.60
2022-11-03T11:53:42.903Z,19.60
2022-11-03T11:56:12.779Z,19.60
2022-11-03T11:58:45.817Z,19.60
2022-11-03T12:01:37.864Z,19.50
2022-11-03T12:04:20.290Z,19.40
2022-11-03T12:06:47.544Z,19.50
2022-11-03T12:09:23.634Z,19.60
2022-11-03T12:11:56.114Z,19.50
2022-11-03T12:14:31.335Z,19.40
2022-11-03T12:17:19.653Z,19.40
2022-11-03T12:19:54.470Z,19.30
2022-11-03T12:22:24.430Z,19.20
2022-11-03T12:24:58.976Z,19.30
2022-11-03T12:27:26.409Z,19.20
2022-11-03T12:29:59.406Z,19.10
2022-11-03T12:32:33.749Z,19.10
2022-11-03T12:35:08.496Z,19.00
2022-11-03T12:37:36.192Z,18.90
2022-11-03T12:40:04.143Z,18.80
2022-11-03T12:42:31.713Z,18.70
2022-11-03T12:47:54.768Z,18.60
2022-11-03T12:50:21.999Z,18.50
2022-11-03T12:52:49.282Z,18.50
2022-11-03T12:55:16.805Z,18.40
2022-11-03T12:57:45.754Z,18.40
2022-11-03T13:00:14.381Z,18.40
2022-11-03T13:02:41.790Z,18.30
2022-11-03T13:05:09.486Z,18.30
2022-11-03T13:07:36.841Z,18.40
2022-11-03T13:10:04.814Z,18.30
2022-11-03T13:12:32.086Z,18.30
2022-11-03T13:15:00.869Z,18.30
2022-11-03T13:17:35.757Z,18.30
2022-11-03T13:22:40.895Z,18.20
2022-11-03T13:25:09.135Z,18.10
2022-11-03T13:27:37.361Z,18.10
2022-11-03T13:30:05.892Z,18.10
2022-11-03T13:32:33.445Z,18.10
2022-11-03T13:35:00.928Z,18.00
2022-11-03T13:37:28.209Z,18.00
2022-11-03T13:39:55.478Z,18.10
2022-11-03T13:42:23.014Z,18.00
2022-11-03T13:44:50.579Z,18.10
2022-11-03T13:47:18.180Z,18.00
2022-11-03T13:50:12.147Z,18.00
2022-11-03T13:52:33.126Z,18.00
2022-11-03T14:00:38.797Z,18.00
2022-11-03T14:05:53.443Z,18.00
2022-11-03T14:08:20.721Z,17.90
2022-11-03T14:10:47.929Z,17.90
2022-11-03T14:13:15.441Z,17.90
2022-11-03T14:15:42.654Z,17.90
2022-11-03T14:18:09.842Z,17.90
2022-11-03T14:20:37.495Z,18.00
2022-11-03T14:23:04.912Z,17.90
2022-11-03T14:25:32.910Z,17.90
2022-11-03T14:28:00.270Z,17.90
2022-11-03T14:30:27.564Z,17.90
2022-11-03T14:32:59.418Z,17.80
2022-11-03T14:35:27.169Z,17.80
2022-11-03T14:37:54.893Z,17.80
2022-11-03T14:40:40.670Z,17.70
2022-11-03T14:43:08.690Z,17.80
2022-11-03T14:45:38.419Z,17.70
2022-11-03T14:48:09.101Z,17.70
2022-11-03T14:50:37.134Z,17.70
2022-11-03T14:53:04.492Z,17.80
2022-11-03T14:55:31.755Z,17.80
2022-11-03T14:57:59.174Z,17.80
2022-11-03T15:00:26.485Z,17.70
2022-11-03T15:02:53.751Z,17.70
2022-11-03T15:05:39.905Z,17.60
2022-11-03T15:08:07.405Z,17.60
2022-11-03T15:10:34.918Z,17.60
2022-11-03T15:13:02.613Z,17.60
2022-11-03T15:15:29.839Z,17.60
2022-11-03T15:18:02.515Z,17.60
2022-11-03T15:20:31.019Z,17.60
2022-11-03T15:25:45.626Z,17.50
2022-11-03T15:28:12.949Z,17.50
2022-11-03T15:30:40.240Z,17.40
2022-11-03T15:33:07.601Z,17.40
2022-11-03T15:35:35.059Z,17.40
2022-11-03T15:38:02.548Z,17.40
2022-11-03T15:40:29.810Z,17.30
2022-11-03T15:43:02.685Z,17.20
2022-11-03T15:45:30.795Z,17.20
2022-11-03T15:47:58.625Z,17.10
2022-11-03T15:50:26.807Z,17.10
2022-11-03T15:52:55.077Z,17.00
2022-11-03T15:55:22.939Z,17.00
2022-11-03T15:57:51.131Z,17.00
2022-11-03T16:00:19.106Z,17.00
2022-11-03T16:02:47.789Z,17.00
2022-11-03T16:05:25.468Z,17.00
2022-11-03T16:07:52.764Z,17.00
2022-11-03T16:10:20.050Z,17.00
2022-11-03T16:12:47.353Z,17.00
2022-11-03T16:15:14.751Z,16.90
2022-11-03T16:17:45.550Z,16.80
2022-11-03T16:20:16.411Z,16.80
2022-11-03T16:22:43.783Z,16.90
2022-11-03T16:25:14.211Z,16.90
2022-11-03T16:27:43.049Z,16.90
2022-11-03T16:30:13.593Z,16.90
2022-11-03T16:32:41.235Z,16.90
2022-11-03T16:35:09.857Z,16.90
2022-11-03T16:37:37.453Z,16.80
2022-11-03T16:40:06.503Z,16.80
2022-11-03T16:42:38.386Z,16.80
2022-11-03T16:45:12.133Z,16.90
2022-11-03T16:47:39.532Z,16.90
2022-11-03T16:50:07.395Z,16.90
2022-11-03T16:52:34.650Z,16.90
2022-11-03T16:55:02.533Z,16.90
2022-11-03T16:57:30.037Z,17.00
2022-11-03T16:59:57.893Z,17.00
2022-11-03T17:02:25.386Z,17.00
2022-11-03T17:04:52.772Z,17.00
2022-11-03T17:07:20.259Z,17.00
2022-11-03T17:09:47.702Z,17.00
2022-11-03T17:12:15.164Z,17.00
2022-11-03T17:14:42.478Z,17.00
2022-11-03T17:17:09.821Z,16.90
2022-11-03T17:19:37.158Z,16.90
2022-11-03T17:22:05.127Z,16.80
2022-11-03T17:24:32.644Z,16.80
2022-11-03T17:27:17.847Z,16.80
2022-11-03T17:29:52.212Z,16.80
2022-11-03T17:32:31.551Z,16.80
2022-11-03T17:34:59.006Z,16.80
2022-11-03T17:37:27.618Z,16.80
2022-11-03T17:39:56.223Z,16.80
2022-11-03T17:42:25.536Z,16.80
2022-11-03T17:44:56.902Z,16.80
2022-11-03T17:47:24.892Z,16.80
2022-11-03T17:49:52.412Z,16.70
2022-11-03T17:52:27.972Z,16.70
2022-11-03T17:55:00.065Z,16.70
2022-11-03T17:57:27.590Z,16.70
2022-11-03T17:59:58.011Z,16.70
2022-11-03T18:02:27.772Z,16.70
2022-11-03T18:05:15.432Z,16.80
2022-11-03T18:07:45.897Z,16.70
2022-11-03T18:10:13.188Z,16.70
2022-11-03T18:13:03.390Z,16.70
2022-11-03T18:15:32.176Z,16.70
2022-11-03T18:18:00.390Z,16.60
2022-11-03T18:20:30.242Z,16.60
2022-11-03T18:23:11.240Z,16.50
2022-11-03T18:25:38.484Z,16.50
2022-11-03T18:28:09.868Z,16.50
2022-11-03T18:30:39.517Z,16.50
2022-11-03T18:33:10.227Z,16.70
2022-11-03T18:35:37.765Z,16.70
2022-11-03T18:38:10.464Z,16.70
2022-11-03T18:40:38.774Z,16.80
2022-11-03T18:43:14.903Z,16.80
2022-11-03T18:45:42.589Z,16.80
2022-11-03T18:48:14.879Z,16.80
2022-11-03T18:50:42.252Z,16.70
2022-11-03T18:53:13.541Z,16.70
2022-11-03T18:55:41.302Z,16.70
2022-11-03T18:58:34.988Z,16.70
2022-11-03T19:01:09.123Z,16.70
2022-11-03T19:03:36.668Z,16.70
2022-11-03T19:06:05.114Z,16.60
2022-11-03T19:08:33.718Z,16.60
2022-11-03T19:11:04.104Z,16.60
2022-11-03T19:13:36.645Z,16.50
2022-11-03T19:16:17.742Z,16.50
2022-11-03T19:18:45.882Z,16.50
2022-11-03T19:21:17.910Z,16.40
2022-11-03T19:23:47.953Z,16.40
2022-11-03T19:26:30.646Z,16.40
2022-11-03T19:29:01.982Z,16.40
2022-11-03T19:31:37.534Z,16.40
2022-11-03T19:34:07.170Z,16.40
2022-11-03T19:36:34.515Z,16.30
2022-11-03T19:39:02.927Z,16.30
2022-11-03T19:41:49.053Z,16.40
2022-11-03T19:44:19.332Z,16.30
2022-11-03T19:46:46.870Z,16.30
2022-11-03T19:49:15.066Z,16.30
2022-11-03T19:51:42.560Z,16.30
2022-11-03T19:54:19.515Z,16.40
2022-11-03T19:56:47.587Z,16.30
2022-11-03T19:59:16.607Z,16.30
2022-11-03T20:01:44.279Z,16.20
2022-11-03T20:04:11.694Z,16.20
2022-11-03T20:06:40.728Z,16.20
2022-11-03T20:09:14.981Z,16.10
2022-11-03T20:11:42.296Z,16.00
2022-11-03T20:14:16.680Z,15.90
2022-11-03T20:16:44.235Z,15.90
2022-11-03T20:19:11.813Z,15.90
2022-11-03T20:21:40.971Z,15.90
2022-11-03T20:24:10.166Z,15.90
2022-11-03T20:26:37.558Z,15.90
2022-11-03T20:29:15.220Z,15.90
2022-11-03T20:31:43.462Z,16.00
2022-11-03T20:34:17.402Z,16.00
2022-11-03T20:36:44.952Z,16.00
2022-11-03T20:39:21.578Z,15.90
2022-11-03T20:41:51.669Z,16.00
2022-11-03T20:44:18.962Z,16.00
2022-11-03T20:46:46.286Z,16.00
2022-11-03T20:49:13.611Z,16.00
2022-11-03T20:51:47.883Z,15.90
2022-11-03T20:54:18.814Z,15.90
2022-11-03T20:56:46.889Z,15.90
2022-11-03T20:59:37.639Z,15.90
2022-11-03T21:02:15.158Z,15.90
2022-11-03T21:04:43.854Z,15.80
2022-11-03T21:07:12.997Z,15.90
2022-11-03T21:09:41.653Z,15.90
2022-11-03T21:12:13.222Z,15.90
2022-11-03T21:15:04.380Z,15.90
2022-11-03T21:17:50.696Z,15.80
2022-11-03T21:20:18.028Z,15.80
2022-11-03T21:22:52.545Z,15.80
2022-11-03T21:25:22.331Z,15.80
2022-11-03T21:27:50.034Z,15.80
2022-11-03T21:30:19.068Z,15.80
2022-11-03T21:32:47.863Z,15.70
2022-11-03T21:35:18.209Z,15.70
2022-11-03T21:37:45.683Z,15.70
2022-11-03T21:40:13.347Z,15.70
2022-11-03T21:43:02.524Z,15.70
2022-11-03T21:45:29.974Z,15.60
2022-11-03T21:48:16.404Z,15.60
2022-11-03T21:50:44.208Z,15.60
2022-11-03T21:53:12.483Z,15.60
2022-11-03T21:55:41.464Z,15.60
2022-11-03T21:58:08.968Z,15.60
2022-11-03T22:00:36.458Z,15.60
2022-11-03T22:03:03.786Z,15.60
2022-11-03T22:05:31.147Z,15.60
2022-11-03T22:07:58.692Z,15.60
2022-11-03T22:10:25.978Z,15.60
2022-11-03T22:12:53.643Z,15.60
2022-11-03T22:15:39.430Z,15.60
2022-11-03T22:18:07.476Z,15.60
2022-11-03T22:20:55.273Z,15.60
2022-11-03T22:23:41.835Z,15.60
2022-11-03T22:26:31.109Z,15.60
2022-11-03T22:29:17.740Z,15.70
2022-11-03T22:31:44.956Z,15.70
2022-11-03T22:34:31.286Z,15.70
2022-11-03T22:36:58.547Z,15.70
2022-11-03T22:40:00.420Z,15.60
2022-11-03T22:42:46.462Z,15.60
2022-11-03T22:45:32.194Z,15.60
2022-11-03T22:47:59.495Z,15.60
2022-11-03T22:50:26.974Z,15.60
2022-11-03T22:52:54.333Z,15.60
2022-11-03T22:55:21.674Z,15.50
2022-11-03T22:57:49.124Z,15.50
2022-11-03T23:00:17.029Z,15.40
2022-11-03T23:02:44.436Z,15.40
2022-11-03T23:05:11.646Z,15.40
2022-11-03T23:07:41.472Z,15.30
2022-11-03T23:10:09.663Z,15.30
2022-11-03T23:12:36.901Z,15.40
2022-11-03T23:15:23.374Z,15.40
2022-11-03T23:18:09.430Z,15.40
2022-11-03T23:20:56.717Z,15.40
2022-11-03T23:23:42.632Z,15.40
2022-11-03T23:26:10.033Z,15.50
2022-11-03T23:28:59.384Z,15.50
2022-11-03T23:31:26.803Z,15.40
2022-11-03T23:34:00.417Z,15.40
2022-11-03T23:36:28.955Z,15.30
2022-11-03T23:39:49.652Z,15.40
2022-11-03T23:42:25.887Z,15.40
2022-11-03T23:45:12.911Z,15.30
2022-11-03T23:48:00.445Z,15.30
2022-11-03T23:50:28.076Z,15.30
2022-11-03T23:57:10.359Z,15.30
2022-11-03T23:59:37.649Z,15.40
